EKOD/ODE METAR and TAF weather

Enter ICAO airport designator
Station Type Date Time Source
EKOD METAR 2019/06/18 17:10 UTC NOAA

EKOD 181710Z VRB01KT 4000 SHRA TSRA SCT033TCU BKN055 21/20 Q1014


Station Type Date Time Source
EKOD Decoded METAR 2019/06/18 17:10 UTC NOAA

Odense / Beldringe, Denmark (EKOD) 55-29N 010-20E 17M
Jun 18, 2019 - 01:10 PM EDT / 2019.06.18 1710 UTC
Wind: Variable at 1 MPH (1 KT):0
Visibility: 2 mile(s):0
Sky conditions: mostly cloudy
Weather: rain showers; rain with thunder; Towering cumulus clouds observed
Temperature: 69 F (21 C)
Dew Point: 68 F (20 C)
Relative Humidity: 94%
Pressure (altimeter): 29.94 in. Hg (1014 hPa)
ob: EKOD 181710Z VRB01KT 4000 SHRA TSRA SCT033TCU BKN055 21/20 Q1014
cycle: 17

Station Type Date Time Source
EKOD TAF 2015/04/20 17:00 UTC NOAA

TAF
AMD EKOD 201701Z 2017/2018 CNL

Example: see airport list